sensor_id;sensor_type;location;lat;lon;timestamp;pressure;altitude;pressure_sealevel;temperature;humidity
26839;BME280;40088;51.214;6.786;2023-07-13T00:09:15;101223.78;;;21.45;64.67
26839;BME280;40088;51.214;6.786;2023-07-13T00:19:16;101225.50;;;21.46;64.74
26839;BME280;40088;51.214;6.786;2023-07-13T00:29:17;101225.50;;;21.46;64.78
26839;BME280;40088;51.214;6.786;2023-07-13T00:39:17;101229.31;;;21.45;64.31
26839;BME280;40088;51.214;6.786;2023-07-13T00:49:20;101228.28;;;21.46;64.45
26839;BME280;40088;51.214;6.786;2023-07-13T00:59:22;101236.59;;;21.46;64.50
26839;BME280;40088;51.214;6.786;2023-07-13T01:09:23;101225.50;;;21.46;64.62
26839;BME280;40088;51.214;6.786;2023-07-13T01:19:32;101219.97;;;21.46;64.24
26839;BME280;40088;51.214;6.786;2023-07-13T01:29:37;101222.06;;;21.44;64.42
26839;BME280;40088;51.214;6.786;2023-07-13T01:39:42;101229.31;;;21.45;64.38
26839;BME280;40088;51.214;6.786;2023-07-13T01:49:42;101233.81;;;21.46;64.11
26839;BME280;40088;51.214;6.786;2023-07-13T01:59:42;101228.47;;;21.44;64.18
26839;BME280;40088;51.214;6.786;2023-07-13T02:09:43;101221.88;;;21.45;64.10
26839;BME280;40088;51.214;6.786;2023-07-13T02:19:43;101229.31;;;21.45;64.37
26839;BME280;40088;51.214;6.786;2023-07-13T02:29:43;101233.16;;;21.44;64.32
26839;BME280;40088;51.214;6.786;2023-07-13T02:39:43;101238.53;;;21.45;63.88
26839;BME280;40088;51.214;6.786;2023-07-13T02:49:44;101240.41;;;21.45;64.08
26839;BME280;40088;51.214;6.786;2023-07-13T02:59:44;101248.72;;;21.45;63.93
26839;BME280;40088;51.214;6.786;2023-07-13T03:09:44;101248.72;;;21.45;63.65
26839;BME280;40088;51.214;6.786;2023-07-13T03:19:45;101254.50;;;21.43;63.96
26839;BME280;40088;51.214;6.786;2023-07-13T03:29:49;101252.56;;;21.44;63.84
26839;BME280;40088;51.214;6.786;2023-07-13T03:39:50;101261.75;;;21.44;63.91
26839;BME280;40088;51.214;6.786;2023-07-13T03:49:50;101272.84;;;21.44;64.09
26839;BME280;40088;51.214;6.786;2023-07-13T03:59:50;101282.22;;;21.43;63.74
26839;BME280;40088;51.214;6.786;2023-07-13T04:09:50;101293.31;;;21.43;64.18
26839;BME280;40088;51.214;6.786;2023-07-13T04:19:51;101307.19;;;21.43;64.13
26839;BME280;40088;51.214;6.786;2023-07-13T04:29:51;101298.00;;;21.43;64.04
26839;BME280;40088;51.214;6.786;2023-07-13T04:39:52;101311.88;;;21.43;63.70
26839;BME280;40088;51.214;6.786;2023-07-13T04:49:52;101306.31;;;21.43;63.83
26839;BME280;40088;51.214;6.786;2023-07-13T04:59:53;101309.09;;;21.43;63.69
26839;BME280;40088;51.214;6.786;2023-07-13T05:09:53;101320.19;;;21.43;63.65
26839;BME280;40088;51.214;6.786;2023-07-13T05:19:54;101325.72;;;21.43;63.85
26839;BME280;40088;51.214;6.786;2023-07-13T05:29:54;101333.19;;;21.42;63.89
26839;BME280;40088;51.214;6.786;2023-07-13T05:39:54;101347.91;;;21.43;63.32
26839;BME280;40088;51.214;6.786;2023-07-13T05:49:55;101359.00;;;21.43;63.51
26839;BME280;40088;51.214;6.786;2023-07-13T05:59:55;101365.41;;;21.43;63.16
26839;BME280;40088;51.214;6.786;2023-07-13T06:09:55;101369.03;;;21.44;63.15
26839;BME280;40088;51.214;6.786;2023-07-13T06:19:56;101381.19;;;21.43;63.00
26839;BME280;40088;51.214;6.786;2023-07-13T06:29:56;101385.88;;;21.42;63.23
26839;BME280;40088;51.214;6.786;2023-07-13T06:39:56;101396.97;;;21.42;63.21
26839;BME280;40088;51.214;6.786;2023-07-13T06:49:57;101397.81;;;21.43;63.14
26839;BME280;40088;51.214;6.786;2023-07-13T06:59:57;101411.69;;;21.43;63.42
26839;BME280;40088;51.214;6.786;2023-07-13T07:09:58;101424.69;;;21.42;63.43
26839;BME280;40088;51.214;6.786;2023-07-13T07:19:58;101428.31;;;21.43;63.29
26839;BME280;40088;51.214;6.786;2023-07-13T07:29:59;101419.16;;;21.42;62.92
26839;BME280;40088;51.214;6.786;2023-07-13T07:39:59;101425.53;;;21.43;63.22
26839;BME280;40088;51.214;6.786;2023-07-13T07:49:59;101431.94;;;21.43;63.36
26839;BME280;40088;51.214;6.786;2023-07-13T08:00:00;101431.09;;;21.43;63.33
26839;BME280;40088;51.214;6.786;2023-07-13T08:10:00;101428.31;;;21.43;63.28
26839;BME280;40088;51.214;6.786;2023-07-13T08:20:01;101427.25;;;21.44;63.41
26839;BME280;40088;51.214;6.786;2023-07-13T08:30:02;101411.69;;;21.43;63.42
26839;BME280;40088;51.214;6.786;2023-07-13T08:40:02;101417.22;;;21.43;63.15
26839;BME280;40088;51.214;6.786;2023-07-13T08:50:04;101414.47;;;21.43;63.48
26839;BME280;40088;51.214;6.786;2023-07-13T09:00:07;101408.06;;;21.42;63.63
26839;BME280;40088;51.214;6.786;2023-07-13T09:10:21;101420.00;;;21.43;63.73
26839;BME280;40088;51.214;6.786;2023-07-13T09:20:35;101414.47;;;21.43;63.80
26839;BME280;40088;51.214;6.786;2023-07-13T09:30:38;101410.63;;;21.44;63.75
26839;BME280;40088;51.214;6.786;2023-07-13T09:51:13;101426.63;;;21.42;64.07
26839;BME280;40088;51.214;6.786;2023-07-13T10:01:14;101435.56;;;21.44;63.81
26839;BME280;40088;51.214;6.786;2023-07-13T10:11:25;101438.34;;;21.44;63.75
26839;BME280;40088;51.214;6.786;2023-07-13T10:21:39;101446.66;;;21.44;64.16
26839;BME280;40088;51.214;6.786;2023-07-13T10:31:45;101454.13;;;21.43;64.35
26839;BME280;40088;51.214;6.786;2023-07-13T10:41:51;101449.44;;;21.44;63.97
26839;BME280;40088;51.214;6.786;2023-07-13T10:51:53;101454.13;;;21.43;64.14
26839;BME280;40088;51.214;6.786;2023-07-13T11:22:23;101450.28;;;21.44;63.98
26839;BME280;40088;51.214;6.786;2023-07-13T11:32:25;101433.88;;;21.43;64.40
26839;BME280;40088;51.214;6.786;2023-07-13T11:42:30;101436.41;;;21.44;64.19
26839;BME280;40088;51.214;6.786;2023-07-13T11:52:34;101420.84;;;21.43;64.41
26839;BME280;40088;51.214;6.786;2023-07-13T12:02:38;101416.16;;;21.44;63.94
26839;BME280;40088;51.214;6.786;2023-07-13T12:12:46;101396.75;;;21.44;64.34
26839;BME280;40088;51.214;6.786;2023-07-13T12:22:48;101411.47;;;21.44;64.40
26839;BME280;40088;51.214;6.786;2023-07-13T12:33:11;101414.22;;;21.44;64.38
26839;BME280;40088;51.214;6.786;2023-07-13T12:43:15;101400.38;;;21.44;64.27
26839;BME280;40088;51.214;6.786;2023-07-13T12:53:22;101413.19;;;21.45;64.30
26839;BME280;40088;51.214;6.786;2023-07-13T13:03:29;101408.69;;;21.44;64.35
26839;BME280;40088;51.214;6.786;2023-07-13T13:13:32;101403.16;;;21.44;64.01
26839;BME280;40088;51.214;6.786;2023-07-13T13:23:33;101410.63;;;21.44;64.18
26839;BME280;40088;51.214;6.786;2023-07-13T13:33:33;101412.31;;;21.45;64.19
26839;BME280;40088;51.214;6.786;2023-07-13T13:43:33;101401.22;;;21.45;64.00
26839;BME280;40088;51.214;6.786;2023-07-13T13:53:34;101415.09;;;21.45;64.07
26839;BME280;40088;51.214;6.786;2023-07-13T14:03:34;101422.56;;;21.44;63.94
26839;BME280;40088;51.214;6.786;2023-07-13T14:13:37;101415.09;;;21.45;63.72
26839;BME280;40088;51.214;6.786;2023-07-13T14:23:40;101412.31;;;21.45;63.78
26839;BME280;40088;51.214;6.786;2023-07-13T14:33:40;101420.63;;;21.45;64.17
26839;BME280;40088;51.214;6.786;2023-07-13T14:43:41;101420.44;;;21.46;64.06
26839;BME280;40088;51.214;6.786;2023-07-13T14:53:41;101428.09;;;21.44;63.91
26839;BME280;40088;51.214;6.786;2023-07-13T15:03:47;101459.44;;;21.45;63.97
26839;BME280;40088;51.214;6.786;2023-07-13T15:13:49;101459.44;;;21.45;64.15
26839;BME280;40088;51.214;6.786;2023-07-13T15:23:51;101463.97;;;21.46;64.17
26839;BME280;40088;51.214;6.786;2023-07-13T15:33:52;101474.19;;;21.45;64.40
26839;BME280;40088;51.214;6.786;2023-07-13T15:43:55;101475.06;;;21.46;64.47
26839;BME280;40088;51.214;6.786;2023-07-13T15:54:00;101475.06;;;21.46;64.04
26839;BME280;40088;51.214;6.786;2023-07-13T16:04:05;101472.28;;;21.46;64.19
26839;BME280;40088;51.214;6.786;2023-07-13T16:14:05;101469.50;;;21.46;64.42
26839;BME280;40088;51.214;6.786;2023-07-13T16:24:15;101463.97;;;21.46;64.40
26839;BME280;40088;51.214;6.786;2023-07-13T16:34:16;101461.19;;;21.46;64.12
26839;BME280;40088;51.214;6.786;2023-07-13T16:44:18;101480.59;;;21.46;64.07
26839;BME280;40088;51.214;6.786;2023-07-13T16:54:21;101487.19;;;21.45;63.87
26839;BME280;40088;51.214;6.786;2023-07-13T17:04:22;101488.91;;;21.46;64.10
26839;BME280;40088;51.214;6.786;2023-07-13T17:14:23;101487.19;;;21.45;63.99
26839;BME280;40088;51.214;6.786;2023-07-13T17:24:26;101479.75;;;21.45;63.59
26839;BME280;40088;51.214;6.786;2023-07-13T17:34:27;101485.28;;;21.45;64.09
26839;BME280;40088;51.214;6.786;2023-07-13T17:44:27;101486.16;;;21.46;64.17
26839;BME280;40088;51.214;6.786;2023-07-13T17:54:28;101472.47;;;21.44;64.28
26839;BME280;40088;51.214;6.786;2023-07-13T18:04:30;101480.59;;;21.46;64.17
26839;BME280;40088;51.214;6.786;2023-07-13T18:14:32;101484.41;;;21.45;63.99
26839;BME280;40088;51.214;6.786;2023-07-13T18:24:36;101487.84;;;21.47;63.90
26839;BME280;40088;51.214;6.786;2023-07-13T18:34:41;101505.56;;;21.46;64.03
26839;BME280;40088;51.214;6.786;2023-07-13T18:44:43;101496.38;;;21.45;63.83
26839;BME280;40088;51.214;6.786;2023-07-13T18:54:43;101497.25;;;21.46;63.78
26839;BME280;40088;51.214;6.786;2023-07-13T19:04:43;101499.16;;;21.45;63.99
26839;BME280;40088;51.214;6.786;2023-07-13T19:14:44;101495.31;;;21.46;63.97
26839;BME280;40088;51.214;6.786;2023-07-13T19:24:47;101501.03;;;21.45;63.79
26839;BME280;40088;51.214;6.786;2023-07-13T19:34:48;101511.94;;;21.46;63.72
26839;BME280;40088;51.214;6.786;2023-07-13T19:44:53;101523.22;;;21.45;63.78
26839;BME280;40088;51.214;6.786;2023-07-13T19:54:57;101530.50;;;21.46;64.24
26839;BME280;40088;51.214;6.786;2023-07-13T20:04:58;101544.38;;;21.46;64.10
26839;BME280;40088;51.214;6.786;2023-07-13T20:14:58;101541.59;;;21.46;64.23
26839;BME280;40088;51.214;6.786;2023-07-13T20:24:58;101544.38;;;21.46;64.04
26839;BME280;40088;51.214;6.786;2023-07-13T20:34:59;101541.59;;;21.46;64.04
26839;BME280;40088;51.214;6.786;2023-07-13T20:44:59;101536.06;;;21.46;64.07
26839;BME280;40088;51.214;6.786;2023-07-13T20:54:59;101547.16;;;21.46;64.46
26839;BME280;40088;51.214;6.786;2023-07-13T21:05:20;101546.28;;;21.45;63.89
26839;BME280;40088;51.214;6.786;2023-07-13T21:15:26;101540.75;;;21.45;64.35
26839;BME280;40088;51.214;6.786;2023-07-13T21:25:28;101545.22;;;21.46;64.14
26839;BME280;40088;51.214;6.786;2023-07-13T21:35:38;101558.25;;;21.46;64.35
26839;BME280;40088;51.214;6.786;2023-07-13T21:45:40;101554.78;;;21.44;64.24
26839;BME280;40088;51.214;6.786;2023-07-13T21:55:40;101557.38;;;21.45;64.40
26839;BME280;40088;51.214;6.786;2023-07-13T22:05:40;101567.59;;;21.45;64.31
26839;BME280;40088;51.214;6.786;2023-07-13T22:15:41;101544.56;;;21.44;64.45
26839;BME280;40088;51.214;6.786;2023-07-13T22:25:43;101539.88;;;21.45;64.33
26839;BME280;40088;51.214;6.786;2023-07-13T22:35:45;101543.53;;;21.45;64.57
26839;BME280;40088;51.214;6.786;2023-07-13T22:45:47;101555.66;;;21.44;64.27
26839;BME280;40088;51.214;6.786;2023-07-13T22:55:48;101536.25;;;21.44;64.62
26839;BME280;40088;51.214;6.786;2023-07-13T23:05:49;101539.00;;;21.44;64.65
26839;BME280;40088;51.214;6.786;2023-07-13T23:15:49;101534.31;;;21.45;64.63
26839;BME280;40088;51.214;6.786;2023-07-13T23:25:50;101521.53;;;21.44;64.70
26839;BME280;40088;51.214;6.786;2023-07-13T23:35:54;101515.97;;;21.44;64.58
26839;BME280;40088;51.214;6.786;2023-07-13T23:45:57;101522.38;;;21.44;64.40
26839;BME280;40088;51.214;6.786;2023-07-13T23:55:57;101510.44;;;21.44;64.73
